sensor_id;sensor_type;location;lat;lon;timestamp;pressure;altitude;pressure_sealevel;temperature;humidity
51249;BME280;39642;47.556;18.728;2023-01-31T00:01:08;99244.22;;;22.01;29.55
51249;BME280;39642;47.556;18.728;2023-01-31T00:03:35;99243.22;;;22.02;29.54
51249;BME280;39642;47.556;18.728;2023-01-31T00:06:14;99232.75;;;22.00;29.45
51249;BME280;39642;47.556;18.728;2023-01-31T00:08:41;99227.47;;;22.00;29.63
51249;BME280;39642;47.556;18.728;2023-01-31T00:11:07;99224.91;;;21.99;29.49
51249;BME280;39642;47.556;18.728;2023-01-31T00:13:33;99225.75;;;21.99;29.84
51249;BME280;39642;47.556;18.728;2023-01-31T00:15:59;99223.25;;;21.98;29.68
51249;BME280;39642;47.556;18.728;2023-01-31T00:18:25;99224.06;;;21.98;29.57
51249;BME280;39642;47.556;18.728;2023-01-31T00:20:51;99223.25;;;21.98;29.65
51249;BME280;39642;47.556;18.728;2023-01-31T00:23:17;99228.63;;;21.96;29.61
51249;BME280;39642;47.556;18.728;2023-01-31T00:25:43;99231.28;;;21.96;29.66
51249;BME280;39642;47.556;18.728;2023-01-31T00:28:09;99235.75;;;21.96;30.00
51249;BME280;39642;47.556;18.728;2023-01-31T00:30:35;99226.81;;;21.97;29.82
51249;BME280;39642;47.556;18.728;2023-01-31T00:33:01;99242.88;;;21.95;29.80
51249;BME280;39642;47.556;18.728;2023-01-31T00:35:27;99237.56;;;21.95;29.63
51249;BME280;39642;47.556;18.728;2023-01-31T00:37:53;99243.81;;;21.94;29.31
51249;BME280;39642;47.556;18.728;2023-01-31T00:40:19;99245.53;;;21.95;29.48
51249;BME280;39642;47.556;18.728;2023-01-31T00:42:45;99251.66;;;21.96;29.28
51249;BME280;39642;47.556;18.728;2023-01-31T00:45:11;99252.59;;;21.95;29.34
51249;BME280;39642;47.556;18.728;2023-01-31T00:47:37;99263.09;;;21.96;29.62
51249;BME280;39642;47.556;18.728;2023-01-31T00:50:04;99256.00;;;21.97;29.61
51249;BME280;39642;47.556;18.728;2023-01-31T00:52:30;99250.69;;;21.97;29.51
51249;BME280;39642;47.556;18.728;2023-01-31T00:54:56;99254.19;;;21.97;29.46
51249;BME280;39642;47.556;18.728;2023-01-31T00:57:22;99259.47;;;21.97;29.37
51249;BME280;39642;47.556;18.728;2023-01-31T00:59:48;99254.06;;;21.99;29.36
51249;BME280;39642;47.556;18.728;2023-01-31T01:02:14;99254.91;;;21.99;29.15
51249;BME280;39642;47.556;18.728;2023-01-31T01:04:40;99256.63;;;22.00;29.07
51249;BME280;39642;47.556;18.728;2023-01-31T01:07:06;99264.56;;;22.00;29.20
51249;BME280;39642;47.556;18.728;2023-01-31T01:09:32;99257.47;;;22.01;29.16
51249;BME280;39642;47.556;18.728;2023-01-31T01:11:58;99262.75;;;22.01;29.38
51249;BME280;39642;47.556;18.728;2023-01-31T01:14:24;99250.34;;;22.01;29.54
51249;BME280;39642;47.556;18.728;2023-01-31T01:16:49;99260.94;;;22.01;30.05
51249;BME280;39642;47.556;18.728;2023-01-31T01:19:17;99260.94;;;22.01;29.60
51249;BME280;39642;47.556;18.728;2023-01-31T01:21:44;99254.81;;;22.01;29.68
51249;BME280;39642;47.556;18.728;2023-01-31T01:24:16;99262.75;;;22.01;30.22
51249;BME280;39642;47.556;18.728;2023-01-31T01:26:43;99259.28;;;22.00;29.75
51249;BME280;39642;47.556;18.728;2023-01-31T01:29:10;99259.28;;;22.00;29.78
51249;BME280;39642;47.556;18.728;2023-01-31T01:31:38;99268.16;;;21.99;29.67
51249;BME280;39642;47.556;18.728;2023-01-31T01:34:13;99252.25;;;21.99;29.67
51249;BME280;39642;47.556;18.728;2023-01-31T01:36:39;99258.53;;;21.98;29.47
51249;BME280;39642;47.556;18.728;2023-01-31T01:39:07;99265.66;;;21.98;29.64
51249;BME280;39642;47.556;18.728;2023-01-31T01:41:34;99269.25;;;21.97;29.50
51249;BME280;39642;47.556;18.728;2023-01-31T01:44:03;99271.06;;;21.96;29.70
51249;BME280;39642;47.556;18.728;2023-01-31T01:46:36;99290.59;;;21.95;29.56
51249;BME280;39642;47.556;18.728;2023-01-31T01:49:19;99298.53;;;21.95;29.56
51249;BME280;39642;47.556;18.728;2023-01-31T01:51:49;99294.16;;;21.94;29.34
51249;BME280;39642;47.556;18.728;2023-01-31T01:54:22;99308.28;;;21.95;29.43
51249;BME280;39642;47.556;18.728;2023-01-31T01:56:56;99302.13;;;21.94;29.40
51249;BME280;39642;47.556;18.728;2023-01-31T02:01:54;99311.06;;;21.93;29.50
51249;BME280;39642;47.556;18.728;2023-01-31T02:04:24;99309.34;;;21.92;29.57
51249;BME280;39642;47.556;18.728;2023-01-31T02:06:52;99313.81;;;21.92;29.11
51249;BME280;39642;47.556;18.728;2023-01-31T02:09:37;99332.25;;;21.93;29.17
51249;BME280;39642;47.556;18.728;2023-01-31T02:12:05;99334.03;;;21.93;28.84
51249;BME280;39642;47.556;18.728;2023-01-31T02:14:31;99332.25;;;21.93;28.86
51249;BME280;39642;47.556;18.728;2023-01-31T02:16:57;99325.97;;;21.94;29.07
51249;BME280;39642;47.556;18.728;2023-01-31T02:19:34;99333.94;;;21.94;28.91
51249;BME280;39642;47.556;18.728;2023-01-31T02:22:52;99333.94;;;21.94;28.81
51249;BME280;39642;47.556;18.728;2023-01-31T02:33:20;99338.16;;;21.97;29.04
51249;BME280;39642;47.556;18.728;2023-01-31T02:35:51;99337.31;;;21.96;29.08
51249;BME280;39642;47.556;18.728;2023-01-31T02:41:09;99347.09;;;21.96;28.94
51249;BME280;39642;47.556;18.728;2023-01-31T02:43:52;99353.22;;;21.96;29.09
51249;BME280;39642;47.556;18.728;2023-01-31T02:49:22;99343.59;;;21.95;28.98
51249;BME280;39642;47.556;18.728;2023-01-31T02:52:06;99358.63;;;21.95;29.72
51249;BME280;39642;47.556;18.728;2023-01-31T02:54:47;99366.59;;;21.95;29.19
51249;BME280;39642;47.556;18.728;2023-01-31T02:57:35;99362.25;;;21.94;28.81
51249;BME280;39642;47.556;18.728;2023-01-31T03:00:05;99356.94;;;21.94;28.80
51249;BME280;39642;47.556;18.728;2023-01-31T03:02:31;99368.50;;;21.93;28.82
51249;BME280;39642;47.556;18.728;2023-01-31T03:04:57;99357.06;;;21.92;28.89
51249;BME280;39642;47.556;18.728;2023-01-31T03:07:26;99368.63;;;21.91;29.14
51249;BME280;39642;47.556;18.728;2023-01-31T03:10:25;99378.34;;;21.91;29.00
51249;BME280;39642;47.556;18.728;2023-01-31T03:15:44;99372.22;;;21.90;28.94
51249;BME280;39642;47.556;18.728;2023-01-31T03:18:43;99374.88;;;21.90;29.04
51249;BME280;39642;47.556;18.728;2023-01-31T03:21:15;99372.34;;;21.89;29.16
51249;BME280;39642;47.556;18.728;2023-01-31T03:23:47;99382.06;;;21.88;28.74
51249;BME280;39642;47.556;18.728;2023-01-31T03:26:15;99379.44;;;21.88;28.73
51249;BME280;39642;47.556;18.728;2023-01-31T03:28:45;99382.06;;;21.88;28.65
51249;BME280;39642;47.556;18.728;2023-01-31T03:33:46;99388.12;;;21.90;28.59
51249;BME280;39642;47.556;18.728;2023-01-31T03:38:58;99395.12;;;21.91;28.72
51249;BME280;39642;47.556;18.728;2023-01-31T03:41:39;99382.72;;;21.92;28.77
51249;BME280;39642;47.556;18.728;2023-01-31T03:44:13;99383.56;;;21.92;28.94
51249;BME280;39642;47.556;18.728;2023-01-31T03:46:43;99383.47;;;21.94;28.96
51249;BME280;39642;47.556;18.728;2023-01-31T03:49:13;99379.97;;;21.93;29.01
51249;BME280;39642;47.556;18.728;2023-01-31T03:51:45;99379.97;;;21.93;28.84
51249;BME280;39642;47.556;18.728;2023-01-31T03:54:21;99386.94;;;21.94;28.74
51249;BME280;39642;47.556;18.728;2023-01-31T03:56:53;99396.72;;;21.94;28.78
51249;BME280;39642;47.556;18.728;2023-01-31T03:59:28;99396.72;;;21.94;28.72
51249;BME280;39642;47.556;18.728;2023-01-31T04:01:58;99407.31;;;21.94;28.70
51249;BME280;39642;47.556;18.728;2023-01-31T04:04:34;99411.78;;;21.93;28.55
51249;BME280;39642;47.556;18.728;2023-01-31T04:07:01;99411.78;;;21.93;28.59
51249;BME280;39642;47.556;18.728;2023-01-31T04:09:28;99411.78;;;21.93;28.51
51249;BME280;39642;47.556;18.728;2023-01-31T04:11:58;99424.28;;;21.91;29.00
51249;BME280;39642;47.556;18.728;2023-01-31T04:14:25;99417.19;;;21.92;28.82
51249;BME280;39642;47.556;18.728;2023-01-31T04:16:51;99434.91;;;21.91;28.83
51249;BME280;39642;47.556;18.728;2023-01-31T04:19:17;99434.03;;;21.91;29.00
51249;BME280;39642;47.556;18.728;2023-01-31T04:21:43;99438.47;;;21.90;28.69
51249;BME280;39642;47.556;18.728;2023-01-31T04:24:09;99445.59;;;21.90;28.55
51249;BME280;39642;47.556;18.728;2023-01-31T04:26:35;99442.09;;;21.89;28.88
51249;BME280;39642;47.556;18.728;2023-01-31T04:29:01;99448.25;;;21.90;28.93
51249;BME280;39642;47.556;18.728;2023-01-31T04:31:27;99453.63;;;21.88;29.12
51249;BME280;39642;47.556;18.728;2023-01-31T04:33:53;99463.41;;;21.88;28.88
51249;BME280;39642;47.556;18.728;2023-01-31T04:36:19;99481.13;;;21.87;28.59
51249;BME280;39642;47.556;18.728;2023-01-31T04:38:45;99475.81;;;21.87;28.70
51249;BME280;39642;47.556;18.728;2023-01-31T04:41:10;99479.41;;;21.86;28.74
51249;BME280;39642;47.556;18.728;2023-01-31T04:43:36;99462.56;;;21.87;28.89
51249;BME280;39642;47.556;18.728;2023-01-31T04:46:02;99458.19;;;21.86;28.86
51249;BME280;39642;47.556;18.728;2023-01-31T04:48:28;99468.81;;;21.86;28.69
51249;BME280;39642;47.556;18.728;2023-01-31T04:50:54;99465.31;;;21.86;29.13
51249;BME280;39642;47.556;18.728;2023-01-31T04:53:20;99463.50;;;21.86;28.92
51249;BME280;39642;47.556;18.728;2023-01-31T04:55:47;99458.19;;;21.86;29.18
51249;BME280;39642;47.556;18.728;2023-01-31T04:58:13;99468.81;;;21.86;29.10
51249;BME280;39642;47.556;18.728;2023-01-31T05:00:39;99464.47;;;21.85;28.98
51249;BME280;39642;47.556;18.728;2023-01-31T05:03:04;99469.78;;;21.85;28.88
51249;BME280;39642;47.556;18.728;2023-01-31T05:05:31;99469.03;;;21.83;29.04
51249;BME280;39642;47.556;18.728;2023-01-31T05:07:57;99474.31;;;21.83;28.97
51249;BME280;39642;47.556;18.728;2023-01-31T05:10:23;99482.28;;;21.83;28.69
51249;BME280;39642;47.556;18.728;2023-01-31T05:12:49;99485.91;;;21.82;28.68
51249;BME280;39642;47.556;18.728;2023-01-31T05:15:15;99479.72;;;21.81;28.60
51249;BME280;39642;47.556;18.728;2023-01-31T05:17:41;99484.19;;;21.81;28.98
51249;BME280;39642;47.556;18.728;2023-01-31T05:20:08;99487.56;;;21.83;28.92
51249;BME280;39642;47.556;18.728;2023-01-31T05:22:34;99489.38;;;21.82;28.64
51249;BME280;39642;47.556;18.728;2023-01-31T05:25:00;99483.34;;;21.80;28.74
51249;BME280;39642;47.556;18.728;2023-01-31T05:27:26;99485.91;;;21.82;28.63
51249;BME280;39642;47.556;18.728;2023-01-31T05:29:51;99483.34;;;21.80;28.77
51249;BME280;39642;47.556;18.728;2023-01-31T05:32:17;99485.03;;;21.81;28.52
51249;BME280;39642;47.556;18.728;2023-01-31T05:34:44;99482.37;;;21.81;28.43
51249;BME280;39642;47.556;18.728;2023-01-31T05:37:10;99491.19;;;21.82;27.96
51249;BME280;39642;47.556;18.728;2023-01-31T05:39:36;99483.25;;;21.82;27.75
51249;BME280;39642;47.556;18.728;2023-01-31T05:42:02;99491.19;;;21.82;27.77
51249;BME280;39642;47.556;18.728;2023-01-31T05:44:28;99492.97;;;21.81;27.84
51249;BME280;39642;47.556;18.728;2023-01-31T05:46:53;99496.38;;;21.83;28.28
51249;BME280;39642;47.556;18.728;2023-01-31T05:49:19;99495.53;;;21.83;28.03
51249;BME280;39642;47.556;18.728;2023-01-31T05:51:45;99502.31;;;21.87;29.60
51249;BME280;39642;47.556;18.728;2023-01-31T05:54:11;99508.47;;;21.88;29.67
51249;BME280;39642;47.556;18.728;2023-01-31T05:56:37;99510.19;;;21.89;28.80
51249;BME280;39642;47.556;18.728;2023-01-31T05:59:04;99510.19;;;21.89;29.53
51249;BME280;39642;47.556;18.728;2023-01-31T06:01:29;99518.97;;;21.89;28.81
51249;BME280;39642;47.556;18.728;2023-01-31T06:03:55;99512.69;;;21.90;29.39
51249;BME280;39642;47.556;18.728;2023-01-31T06:06:21;99518.00;;;21.90;30.15
51249;BME280;39642;47.556;18.728;2023-01-31T06:08:47;99514.41;;;21.91;30.12
51249;BME280;39642;47.556;18.728;2023-01-31T06:11:14;99517.81;;;21.93;29.95
51249;BME280;39642;47.556;18.728;2023-01-31T06:13:41;99521.22;;;21.95;30.94
51249;BME280;39642;47.556;18.728;2023-01-31T06:16:11;99516.75;;;21.96;30.75
51249;BME280;39642;47.556;18.728;2023-01-31T06:18:37;99525.53;;;21.96;31.34
51249;BME280;39642;47.556;18.728;2023-01-31T06:21:06;99531.69;;;21.97;31.39
51249;BME280;39642;47.556;18.728;2023-01-31T06:23:32;99536.06;;;21.98;32.35
51249;BME280;39642;47.556;18.728;2023-01-31T06:25:59;99529.69;;;22.00;32.38
51249;BME280;39642;47.556;18.728;2023-01-31T06:28:25;99529.69;;;22.00;32.72
51249;BME280;39642;47.556;18.728;2023-01-31T06:30:51;99548.03;;;22.03;32.60
51249;BME280;39642;47.556;18.728;2023-01-31T06:33:17;99547.94;;;22.05;32.35
51249;BME280;39642;47.556;18.728;2023-01-31T06:35:43;99551.50;;;22.04;31.86
51249;BME280;39642;47.556;18.728;2023-01-31T06:38:09;99556.81;;;22.04;31.35
51249;BME280;39642;47.556;18.728;2023-01-31T06:40:37;99550.59;;;22.05;31.50
51249;BME280;39642;47.556;18.728;2023-01-31T06:43:03;99567.44;;;22.04;31.48
51249;BME280;39642;47.556;18.728;2023-01-31T06:45:29;99561.28;;;22.03;31.07
51249;BME280;39642;47.556;18.728;2023-01-31T06:47:55;99559.59;;;22.02;31.14
51249;BME280;39642;47.556;18.728;2023-01-31T06:50:20;99562.44;;;21.99;30.78
51249;BME280;39642;47.556;18.728;2023-01-31T06:52:46;99570.62;;;21.96;30.81
51249;BME280;39642;47.556;18.728;2023-01-31T06:55:12;99572.44;;;21.96;30.44
51249;BME280;39642;47.556;18.728;2023-01-31T06:57:48;99572.59;;;21.93;30.68
51249;BME280;39642;47.556;18.728;2023-01-31T07:00:15;99573.56;;;21.92;30.73
51249;BME280;39642;47.556;18.728;2023-01-31T07:02:43;99583.34;;;21.91;30.69
51249;BME280;39642;47.556;18.728;2023-01-31T07:05:09;99593.94;;;21.91;30.81
51249;BME280;39642;47.556;18.728;2023-01-31T07:07:35;99603.66;;;21.91;30.65
51249;BME280;39642;47.556;18.728;2023-01-31T07:10:01;99603.59;;;21.92;30.74
51249;BME280;39642;47.556;18.728;2023-01-31T07:12:27;99605.28;;;21.93;30.80
51249;BME280;39642;47.556;18.728;2023-01-31T07:14:53;99604.31;;;21.94;30.65
51249;BME280;39642;47.556;18.728;2023-01-31T07:17:19;99610.28;;;21.98;30.66
51249;BME280;39642;47.556;18.728;2023-01-31T07:19:47;99598.72;;;21.99;30.53
51249;BME280;39642;47.556;18.728;2023-01-31T07:22:13;99602.22;;;21.99;30.42
51249;BME280;39642;47.556;18.728;2023-01-31T07:24:39;99604.84;;;21.99;30.50
51249;BME280;39642;47.556;18.728;2023-01-31T07:27:06;99617.94;;;22.02;30.50
51249;BME280;39642;47.556;18.728;2023-01-31T07:29:32;99619.59;;;22.03;30.48
51249;BME280;39642;47.556;18.728;2023-01-31T07:31:58;99625.66;;;22.06;30.42
51249;BME280;39642;47.556;18.728;2023-01-31T07:34:23;99621.09;;;22.08;30.34
51249;BME280;39642;47.556;18.728;2023-01-31T07:36:50;99612.19;;;22.09;30.18
51249;BME280;39642;47.556;18.728;2023-01-31T07:39:16;99618.38;;;22.09;30.18
51249;BME280;39642;47.556;18.728;2023-01-31T07:41:42;99629.72;;;22.11;30.29
51249;BME280;39642;47.556;18.728;2023-01-31T07:44:08;99621.75;;;22.11;30.35
51249;BME280;39642;47.556;18.728;2023-01-31T07:46:39;99628.75;;;22.12;30.19
51249;BME280;39642;47.556;18.728;2023-01-31T07:49:05;99634.91;;;22.13;29.98
51249;BME280;39642;47.556;18.728;2023-01-31T07:51:31;99624.41;;;22.11;30.28
51249;BME280;39642;47.556;18.728;2023-01-31T07:53:57;99638.59;;;22.10;31.15
51249;BME280;39642;47.556;18.728;2023-01-31T07:56:23;99651.78;;;22.12;31.14
51249;BME280;39642;47.556;18.728;2023-01-31T07:58:49;99657.69;;;22.15;31.52
51249;BME280;39642;47.556;18.728;2023-01-31T08:01:20;99658.34;;;22.19;31.34
51249;BME280;39642;47.556;18.728;2023-01-31T08:04:06;99653.81;;;22.21;30.17
51249;BME280;39642;47.556;18.728;2023-01-31T08:06:33;99665.06;;;22.24;29.86
51249;BME280;39642;47.556;18.728;2023-01-31T08:08:59;99665.06;;;22.24;30.09
51249;BME280;39642;47.556;18.728;2023-01-31T08:11:25;99669.44;;;22.26;29.71
51249;BME280;39642;47.556;18.728;2023-01-31T08:13:52;99665.81;;;22.27;30.12
51249;BME280;39642;47.556;18.728;2023-01-31T08:16:18;99681.63;;;22.28;31.28
51249;BME280;39642;47.556;18.728;2023-01-31T08:18:46;99679.72;;;22.30;30.36
51249;BME280;39642;47.556;18.728;2023-01-31T08:21:13;99670.81;;;22.31;30.33
51249;BME280;39642;47.556;18.728;2023-01-31T08:23:39;99671.69;;;22.32;30.11
51249;BME280;39642;47.556;18.728;2023-01-31T08:26:07;99671.56;;;22.33;30.18
51249;BME280;39642;47.556;18.728;2023-01-31T08:28:36;99675.91;;;22.34;30.14
51249;BME280;39642;47.556;18.728;2023-01-31T08:31:03;99679.41;;;22.35;30.03
51249;BME280;39642;47.556;18.728;2023-01-31T08:33:29;99685.56;;;22.35;30.10
51249;BME280;39642;47.556;18.728;2023-01-31T08:35:55;99668.72;;;22.36;30.27
51249;BME280;39642;47.556;18.728;2023-01-31T08:38:21;99690.78;;;22.37;30.19
51249;BME280;39642;47.556;18.728;2023-01-31T08:40:47;99694.50;;;22.34;30.36
51249;BME280;39642;47.556;18.728;2023-01-31T08:43:13;99695.44;;;22.33;29.87
51249;BME280;39642;47.556;18.728;2023-01-31T08:45:39;99693.75;;;22.32;29.69
51249;BME280;39642;47.556;18.728;2023-01-31T08:48:05;99702.00;;;22.28;29.61
51249;BME280;39642;47.556;18.728;2023-01-31T08:50:31;99705.72;;;22.25;29.38
51249;BME280;39642;47.556;18.728;2023-01-31T08:53:02;99707.16;;;22.16;29.37
51249;BME280;39642;47.556;18.728;2023-01-31T08:55:30;99712.09;;;22.08;29.50
51249;BME280;39642;47.556;18.728;2023-01-31T08:57:56;99715.81;;;22.06;29.63
51249;BME280;39642;47.556;18.728;2023-01-31T09:00:22;99720.81;;;22.10;30.89
51249;BME280;39642;47.556;18.728;2023-01-31T09:02:53;99729.22;;;22.17;30.98
51249;BME280;39642;47.556;18.728;2023-01-31T09:05:19;99726.19;;;22.23;31.49
51249;BME280;39642;47.556;18.728;2023-01-31T09:07:45;99720.56;;;22.28;31.33
51249;BME280;39642;47.556;18.728;2023-01-31T09:10:11;99729.16;;;22.31;31.49
51249;BME280;39642;47.556;18.728;2023-01-31T09:12:37;99720.25;;;22.32;31.68
51249;BME280;39642;47.556;18.728;2023-01-31T09:15:03;99726.41;;;22.33;31.40
51249;BME280;39642;47.556;18.728;2023-01-31T09:17:29;99722.91;;;22.32;31.68
51249;BME280;39642;47.556;18.728;2023-01-31T09:19:56;99741.72;;;22.29;31.82
51249;BME280;39642;47.556;18.728;2023-01-31T09:22:22;99726.94;;;22.25;32.05
51249;BME280;39642;47.556;18.728;2023-01-31T09:24:48;99741.03;;;22.26;32.51
51249;BME280;39642;47.556;18.728;2023-01-31T09:27:14;99739.31;;;22.24;32.77
51249;BME280;39642;47.556;18.728;2023-01-31T09:29:40;99738.59;;;22.22;32.54
51249;BME280;39642;47.556;18.728;2023-01-31T09:32:06;99743.22;;;22.19;32.70
51249;BME280;39642;47.556;18.728;2023-01-31T09:34:32;99740.78;;;22.16;32.77
51249;BME280;39642;47.556;18.728;2023-01-31T09:36:58;99739.91;;;22.15;32.63
51249;BME280;39642;47.556;18.728;2023-01-31T09:39:24;99745.12;;;22.17;32.58
51249;BME280;39642;47.556;18.728;2023-01-31T09:41:57;99736.31;;;22.16;32.51
51249;BME280;39642;47.556;18.728;2023-01-31T09:44:27;99739.72;;;22.18;32.35
51249;BME280;39642;47.556;18.728;2023-01-31T09:49:31;99747.25;;;22.12;31.03
51249;BME280;39642;47.556;18.728;2023-01-31T09:52:02;99749.53;;;22.03;30.45
51249;BME280;39642;47.556;18.728;2023-01-31T09:54:33;99745.50;;;21.98;30.38
51249;BME280;39642;47.556;18.728;2023-01-31T09:57:07;99764.22;;;21.95;29.46
51249;BME280;39642;47.556;18.728;2023-01-31T10:05:10;99760.38;;;21.86;28.94
51249;BME280;39642;47.556;18.728;2023-01-31T10:07:53;99746.28;;;21.86;28.01
51249;BME280;39642;47.556;18.728;2023-01-31T10:10:29;99752.41;;;21.86;27.65
51249;BME280;39642;47.556;18.728;2023-01-31T10:13:02;99757.63;;;21.88;27.84
51249;BME280;39642;47.556;18.728;2023-01-31T10:18:05;99756.94;;;21.98;27.13
51249;BME280;39642;47.556;18.728;2023-01-31T10:20:37;99764.69;;;22.01;26.88
51249;BME280;39642;47.556;18.728;2023-01-31T10:28:35;99756.87;;;22.13;26.34
51249;BME280;39642;47.556;18.728;2023-01-31T10:31:11;99745.22;;;22.15;26.12
51249;BME280;39642;47.556;18.728;2023-01-31T10:33:51;99747.88;;;22.15;25.79
51249;BME280;39642;47.556;18.728;2023-01-31T10:36:50;99738.12;;;22.16;26.66
51249;BME280;39642;47.556;18.728;2023-01-31T10:39:31;99734.50;;;22.17;26.03
51249;BME280;39642;47.556;18.728;2023-01-31T10:42:13;99739.72;;;22.18;27.15
51249;BME280;39642;47.556;18.728;2023-01-31T10:44:52;99737.72;;;22.22;27.49
51249;BME280;39642;47.556;18.728;2023-01-31T10:47:23;99745.88;;;22.19;26.75
51249;BME280;39642;47.556;18.728;2023-01-31T10:49:50;99726.13;;;22.10;28.68
51249;BME280;39642;47.556;18.728;2023-01-31T10:57:32;99714.75;;;21.95;28.74
51249;BME280;39642;47.556;18.728;2023-01-31T10:59:58;99710.38;;;21.94;27.77
51249;BME280;39642;47.556;18.728;2023-01-31T11:02:27;99718.09;;;21.97;27.64
51249;BME280;39642;47.556;18.728;2023-01-31T11:04:56;99715.91;;;22.04;28.23
51249;BME280;39642;47.556;18.728;2023-01-31T11:07:23;99714.00;;;22.06;27.80
51249;BME280;39642;47.556;18.728;2023-01-31T11:09:52;99709.56;;;22.07;28.03
51249;BME280;39642;47.556;18.728;2023-01-31T11:12:39;99707.78;;;22.07;28.11
51249;BME280;39642;47.556;18.728;2023-01-31T11:15:17;99704.16;;;22.08;28.02
51249;BME280;39642;47.556;18.728;2023-01-31T11:17:45;99710.41;;;22.07;27.51
51249;BME280;39642;47.556;18.728;2023-01-31T11:20:35;99705.97;;;22.08;29.57
51249;BME280;39642;47.556;18.728;2023-01-31T11:23:03;99708.59;;;22.08;29.07
51249;BME280;39642;47.556;18.728;2023-01-31T11:25:31;99691.56;;;22.12;29.60
51249;BME280;39642;47.556;18.728;2023-01-31T11:28:04;99703.84;;;22.13;29.48
51249;BME280;39642;47.556;18.728;2023-01-31T11:30:41;99691.34;;;22.15;28.38
51249;BME280;39642;47.556;18.728;2023-01-31T11:33:38;99683.28;;;22.16;27.86
51249;BME280;39642;47.556;18.728;2023-01-31T11:36:16;99681.25;;;22.20;28.33
51249;BME280;39642;47.556;18.728;2023-01-31T11:38:51;99680.25;;;22.22;27.38
51249;BME280;39642;47.556;18.728;2023-01-31T11:44:05;99691.09;;;22.32;30.42
51249;BME280;39642;47.556;18.728;2023-01-31T11:46:36;99692.59;;;22.36;29.98
51249;BME280;39642;47.556;18.728;2023-01-31T11:49:11;99684.31;;;22.41;28.38
51249;BME280;39642;47.556;18.728;2023-01-31T11:51:38;99695.84;;;22.40;28.45
51249;BME280;39642;47.556;18.728;2023-01-31T11:54:05;99697.56;;;22.41;29.26
51249;BME280;39642;47.556;18.728;2023-01-31T11:56:34;99691.53;;;22.39;30.32
51249;BME280;39642;47.556;18.728;2023-01-31T11:59:02;99687.91;;;22.40;28.49
51249;BME280;39642;47.556;18.728;2023-01-31T12:01:34;99689.50;;;22.30;29.63
51249;BME280;39642;47.556;18.728;2023-01-31T12:04:03;99686.72;;;22.31;30.06
51249;BME280;39642;47.556;18.728;2023-01-31T12:06:33;99686.63;;;22.33;30.01
51249;BME280;39642;47.556;18.728;2023-01-31T12:09:17;99689.28;;;22.33;29.15
51249;BME280;39642;47.556;18.728;2023-01-31T12:11:50;99691.72;;;22.36;30.32
51249;BME280;39642;47.556;18.728;2023-01-31T12:14:17;99688.13;;;22.37;29.75
51249;BME280;39642;47.556;18.728;2023-01-31T12:16:46;99700.31;;;22.39;30.55
51249;BME280;39642;47.556;18.728;2023-01-31T12:35:00;99707.50;;;22.24;29.65
51249;BME280;39642;47.556;18.728;2023-01-31T12:40:08;99703.25;;;22.22;28.76
51249;BME280;39642;47.556;18.728;2023-01-31T12:42:49;99703.25;;;22.22;29.67
51249;BME280;39642;47.556;18.728;2023-01-31T12:53:48;99693.53;;;22.35;30.54
51249;BME280;39642;47.556;18.728;2023-01-31T12:59:36;99701.38;;;22.37;30.28
51249;BME280;39642;47.556;18.728;2023-01-31T13:04:40;99698.28;;;22.30;31.36
51249;BME280;39642;47.556;18.728;2023-01-31T13:07:24;99709.97;;;22.28;31.14
51249;BME280;39642;47.556;18.728;2023-01-31T13:09:51;99709.22;;;22.26;30.90
51249;BME280;39642;47.556;18.728;2023-01-31T13:12:26;99708.56;;;22.22;31.23
51249;BME280;39642;47.556;18.728;2023-01-31T13:15:05;99719.34;;;22.19;31.07
51249;BME280;39642;47.556;18.728;2023-01-31T13:17:37;99717.66;;;22.18;31.07
51249;BME280;39642;47.556;18.728;2023-01-31T13:20:21;99726.78;;;22.14;30.96
51249;BME280;39642;47.556;18.728;2023-01-31T13:22:54;99724.97;;;22.14;30.67
51249;BME280;39642;47.556;18.728;2023-01-31T13:27:59;99722.09;;;22.04;30.54
51249;BME280;39642;47.556;18.728;2023-01-31T13:30:40;99728.53;;;22.00;29.61
51249;BME280;39642;47.556;18.728;2023-01-31T13:33:30;99725.81;;;21.88;29.48
51249;BME280;39642;47.556;18.728;2023-01-31T13:38:45;99728.41;;;21.75;29.53
51249;BME280;39642;47.556;18.728;2023-01-31T13:43:44;99742.37;;;21.64;28.20
51249;BME280;39642;47.556;18.728;2023-01-31T13:46:12;99747.97;;;21.59;28.25
51249;BME280;39642;47.556;18.728;2023-01-31T13:48:44;99754.12;;;21.60;28.36
51249;BME280;39642;47.556;18.728;2023-01-31T13:51:22;99759.28;;;21.61;28.36
51249;BME280;39642;47.556;18.728;2023-01-31T13:56:41;99759.75;;;21.68;29.84
51249;BME280;39642;47.556;18.728;2023-01-31T13:59:08;99763.28;;;21.69;29.60
51249;BME280;39642;47.556;18.728;2023-01-31T14:01:43;99764.03;;;21.71;29.50
51249;BME280;39642;47.556;18.728;2023-01-31T14:09:33;99771.78;;;21.74;30.32
51249;BME280;39642;47.556;18.728;2023-01-31T14:17:06;99783.44;;;21.71;31.27
51249;BME280;39642;47.556;18.728;2023-01-31T14:22:20;99782.19;;;21.77;31.80
51249;BME280;39642;47.556;18.728;2023-01-31T14:29:45;99799.28;;;21.86;32.73
51249;BME280;39642;47.556;18.728;2023-01-31T14:32:24;99788.69;;;21.86;33.00
51249;BME280;39642;47.556;18.728;2023-01-31T14:34:53;99779.13;;;21.83;33.59
51249;BME280;39642;47.556;18.728;2023-01-31T14:40:17;99784.06;;;21.89;33.54
51249;BME280;39642;47.556;18.728;2023-01-31T14:43:06;99791.03;;;21.90;33.77
51249;BME280;39642;47.556;18.728;2023-01-31T14:57:12;99799.22;;;22.14;32.77
51249;BME280;39642;47.556;18.728;2023-01-31T15:05:42;99790.69;;;22.23;34.94
51249;BME280;39642;47.556;18.728;2023-01-31T15:11:03;99782.72;;;22.23;33.67
51249;BME280;39642;47.556;18.728;2023-01-31T15:13:48;99785.56;;;22.20;36.47
51249;BME280;39642;47.556;18.728;2023-01-31T15:16:18;99786.63;;;22.18;34.77